EGNM/LBA METAR and TAF weather

Enter ICAO airport designator
Station Type Date Time Source
EGNM METAR 2019/04/22 20:20 UTC NOAA

EGNM 222020Z 07007KT 010V090 CAVOK 12/05 Q1004


Station Type Date Time Source
EGNM Decoded METAR 2019/04/22 20:20 UTC NOAA

Leeds And Bradford, United Kingdom (EGNM) 53-52N 001-39W
Apr 22, 2019 - 04:20 PM EDT / 2019.04.22 2020 UTC
Wind: from the ENE (070 degrees) at 8 MPH (7 KT) (direction variable):0
Visibility: greater than 7 mile(s):0
Temperature: 53 F (12 C)
Dew Point: 41 F (5 C)
Relative Humidity: 62%
Pressure (altimeter): 29.65 in. Hg (1004 hPa)
ob: EGNM 222020Z 07007KT 010V090 CAVOK 12/05 Q1004
cycle: 20

Station Type Date Time Source
EGNM TAF 2019/04/22 18:06 UTC NOAA

TAF TAF EGNM 221656Z 2218/2318 12010KT CAVOK
BECMG 2218/2221 VRB03KT PROB30
TEMPO 2303/2308 8000
BECMG 2306/2309 08010KT

Example: see airport list